Terminal Aerodrome Forecast
Issued by NWS

Home | Current Version | Previous Version | Text Only | Print | Product List | Glossary On
Versions: 1 2 3 4 5 6 7 8 9 10 11 12 13 14 15 16
000
FTUS46 KSEW 232320
TAFOLM
TAF
KOLM 232320Z 2400/2424 02005KT P6SM SCT250
     FM240600 00000KT P6SM SCT015 SCT200
     FM240900 00000KT 1/2SM FG OVC001
     FM241900 20004KT P6SM SCT025=

USA.gov is the U.S. government's official web portal to all federal, state and local government web resources and services.